sensor_id;sensor_type;location;lat;lon;timestamp;P1;durP1;ratioP1;P2;durP2;ratioP2
16254;SDS011;8235;52.198;9.904;2023-12-20T00:00:19;6.13;;;5.40;;
16254;SDS011;8235;52.198;9.904;2023-12-20T00:02:48;6.47;;;5.70;;
16254;SDS011;8235;52.198;9.904;2023-12-20T00:05:14;5.77;;;5.00;;
16254;SDS011;8235;52.198;9.904;2023-12-20T00:07:40;4.73;;;4.30;;
16254;SDS011;8235;52.198;9.904;2023-12-20T00:10:09;5.43;;;4.80;;
16254;SDS011;8235;52.198;9.904;2023-12-20T00:12:37;5.60;;;5.00;;
16254;SDS011;8235;52.198;9.904;2023-12-20T00:15:05;5.10;;;4.33;;
16254;SDS011;8235;52.198;9.904;2023-12-20T00:17:32;5.43;;;4.80;;
16254;SDS011;8235;52.198;9.904;2023-12-20T00:19:58;5.20;;;4.50;;
16254;SDS011;8235;52.198;9.904;2023-12-20T00:22:25;5.10;;;4.43;;
16254;SDS011;8235;52.198;9.904;2023-12-20T00:24:51;6.53;;;4.83;;
16254;SDS011;8235;52.198;9.904;2023-12-20T00:27:21;5.87;;;4.43;;
16254;SDS011;8235;52.198;9.904;2023-12-20T00:29:49;5.27;;;4.60;;
16254;SDS011;8235;52.198;9.904;2023-12-20T00:32:15;6.37;;;4.73;;
16254;SDS011;8235;52.198;9.904;2023-12-20T00:34:42;6.30;;;5.10;;
16254;SDS011;8235;52.198;9.904;2023-12-20T00:37:09;5.93;;;4.77;;
16254;SDS011;8235;52.198;9.904;2023-12-20T00:39:35;4.87;;;3.80;;
16254;SDS011;8235;52.198;9.904;2023-12-20T00:42:02;7.90;;;5.10;;
16254;SDS011;8235;52.198;9.904;2023-12-20T00:44:30;6.37;;;4.60;;
16254;SDS011;8235;52.198;9.904;2023-12-20T00:46:57;8.03;;;4.17;;
16254;SDS011;8235;52.198;9.904;2023-12-20T00:49:23;10.27;;;4.40;;
16254;SDS011;8235;52.198;9.904;2023-12-20T00:51:50;8.73;;;4.00;;
16254;SDS011;8235;52.198;9.904;2023-12-20T00:54:17;8.67;;;4.10;;
16254;SDS011;8235;52.198;9.904;2023-12-20T00:56:44;7.63;;;3.80;;
16254;SDS011;8235;52.198;9.904;2023-12-20T00:59:10;10.67;;;4.20;;
16254;SDS011;8235;52.198;9.904;2023-12-20T01:01:38;9.60;;;3.50;;
16254;SDS011;8235;52.198;9.904;2023-12-20T01:04:05;5.50;;;3.97;;
16254;SDS011;8235;52.198;9.904;2023-12-20T01:06:31;6.63;;;3.70;;
16254;SDS011;8235;52.198;9.904;2023-12-20T01:08:58;7.50;;;3.93;;
16254;SDS011;8235;52.198;9.904;2023-12-20T01:11:24;8.87;;;4.13;;
16254;SDS011;8235;52.198;9.904;2023-12-20T01:13:51;7.27;;;3.87;;
16254;SDS011;8235;52.198;9.904;2023-12-20T01:16:17;7.77;;;3.90;;
16254;SDS011;8235;52.198;9.904;2023-12-20T01:18:48;8.37;;;3.33;;
16254;SDS011;8235;52.198;9.904;2023-12-20T01:21:14;7.80;;;2.87;;
16254;SDS011;8235;52.198;9.904;2023-12-20T01:23:41;5.63;;;2.70;;
16254;SDS011;8235;52.198;9.904;2023-12-20T01:26:09;6.23;;;2.30;;
16254;SDS011;8235;52.198;9.904;2023-12-20T01:28:35;8.00;;;2.40;;
16254;SDS011;8235;52.198;9.904;2023-12-20T01:31:02;3.60;;;2.20;;
16254;SDS011;8235;52.198;9.904;2023-12-20T01:33:29;7.57;;;1.97;;
16254;SDS011;8235;52.198;9.904;2023-12-20T01:36:04;6.50;;;1.47;;
16254;SDS011;8235;52.198;9.904;2023-12-20T01:38:31;4.43;;;1.53;;
16254;SDS011;8235;52.198;9.904;2023-12-20T01:40:58;3.97;;;1.93;;
16254;SDS011;8235;52.198;9.904;2023-12-20T01:43:24;4.17;;;1.30;;
16254;SDS011;8235;52.198;9.904;2023-12-20T01:45:51;6.30;;;1.40;;
16254;SDS011;8235;52.198;9.904;2023-12-20T01:48:21;5.67;;;1.93;;
16254;SDS011;8235;52.198;9.904;2023-12-20T01:50:48;4.10;;;1.27;;
16254;SDS011;8235;52.198;9.904;2023-12-20T01:53:16;4.77;;;1.30;;
16254;SDS011;8235;52.198;9.904;2023-12-20T01:55:45;4.17;;;1.40;;
16254;SDS011;8235;52.198;9.904;2023-12-20T01:58:12;8.63;;;1.10;;
16254;SDS011;8235;52.198;9.904;2023-12-20T02:00:39;7.43;;;1.00;;
16254;SDS011;8235;52.198;9.904;2023-12-20T02:03:06;2.87;;;1.00;;
16254;SDS011;8235;52.198;9.904;2023-12-20T02:05:33;6.00;;;1.10;;
16254;SDS011;8235;52.198;9.904;2023-12-20T02:08:01;6.90;;;1.57;;
16254;SDS011;8235;52.198;9.904;2023-12-20T02:10:29;6.70;;;0.87;;
16254;SDS011;8235;52.198;9.904;2023-12-20T02:12:56;6.57;;;1.00;;
16254;SDS011;8235;52.198;9.904;2023-12-20T02:15:22;5.97;;;1.20;;
16254;SDS011;8235;52.198;9.904;2023-12-20T02:17:49;5.93;;;1.20;;
16254;SDS011;8235;52.198;9.904;2023-12-20T02:20:16;6.60;;;1.30;;
16254;SDS011;8235;52.198;9.904;2023-12-20T02:22:43;7.67;;;1.30;;
16254;SDS011;8235;52.198;9.904;2023-12-20T02:25:10;4.53;;;1.27;;
16254;SDS011;8235;52.198;9.904;2023-12-20T02:27:36;4.23;;;1.30;;
16254;SDS011;8235;52.198;9.904;2023-12-20T02:30:05;4.60;;;1.03;;
16254;SDS011;8235;52.198;9.904;2023-12-20T02:32:33;3.70;;;1.00;;
16254;SDS011;8235;52.198;9.904;2023-12-20T02:35:00;4.50;;;1.10;;
16254;SDS011;8235;52.198;9.904;2023-12-20T02:37:26;4.03;;;1.07;;
16254;SDS011;8235;52.198;9.904;2023-12-20T02:39:54;4.73;;;0.90;;
16254;SDS011;8235;52.198;9.904;2023-12-20T02:42:20;8.80;;;2.23;;
16254;SDS011;8235;52.198;9.904;2023-12-20T02:44:47;5.13;;;1.70;;
16254;SDS011;8235;52.198;9.904;2023-12-20T02:47:13;5.63;;;1.20;;
16254;SDS011;8235;52.198;9.904;2023-12-20T02:49:40;3.03;;;1.40;;
16254;SDS011;8235;52.198;9.904;2023-12-20T02:52:06;2.73;;;1.50;;
16254;SDS011;8235;52.198;9.904;2023-12-20T02:54:33;5.80;;;1.23;;
16254;SDS011;8235;52.198;9.904;2023-12-20T02:57:01;6.30;;;1.87;;
16254;SDS011;8235;52.198;9.904;2023-12-20T02:59:27;6.17;;;1.70;;
16254;SDS011;8235;52.198;9.904;2023-12-20T03:01:57;2.90;;;1.60;;
16254;SDS011;8235;52.198;9.904;2023-12-20T03:04:23;5.63;;;1.23;;
16254;SDS011;8235;52.198;9.904;2023-12-20T03:06:50;4.37;;;1.20;;
16254;SDS011;8235;52.198;9.904;2023-12-20T03:09:16;3.20;;;1.10;;
16254;SDS011;8235;52.198;9.904;2023-12-20T03:11:43;2.47;;;0.77;;
16254;SDS011;8235;52.198;9.904;2023-12-20T03:14:11;2.40;;;0.73;;
16254;SDS011;8235;52.198;9.904;2023-12-20T03:16:37;7.07;;;1.17;;
16254;SDS011;8235;52.198;9.904;2023-12-20T03:19:04;4.90;;;0.80;;
16254;SDS011;8235;52.198;9.904;2023-12-20T03:21:30;4.70;;;0.90;;
16254;SDS011;8235;52.198;9.904;2023-12-20T03:23:56;2.50;;;0.80;;
16254;SDS011;8235;52.198;9.904;2023-12-20T03:26:23;3.13;;;0.83;;
16254;SDS011;8235;52.198;9.904;2023-12-20T03:28:49;3.43;;;0.93;;
16254;SDS011;8235;52.198;9.904;2023-12-20T03:31:18;5.07;;;1.83;;
16254;SDS011;8235;52.198;9.904;2023-12-20T03:33:46;5.37;;;1.17;;
16254;SDS011;8235;52.198;9.904;2023-12-20T03:36:12;4.67;;;0.90;;
16254;SDS011;8235;52.198;9.904;2023-12-20T03:38:39;4.33;;;1.27;;
16254;SDS011;8235;52.198;9.904;2023-12-20T03:41:06;7.70;;;1.43;;
16254;SDS011;8235;52.198;9.904;2023-12-20T03:43:33;6.03;;;1.43;;
16254;SDS011;8235;52.198;9.904;2023-12-20T03:45:59;4.87;;;1.10;;
16254;SDS011;8235;52.198;9.904;2023-12-20T03:48:29;5.80;;;1.23;;
16254;SDS011;8235;52.198;9.904;2023-12-20T03:50:56;6.77;;;1.20;;
16254;SDS011;8235;52.198;9.904;2023-12-20T03:53:23;3.63;;;1.10;;
16254;SDS011;8235;52.198;9.904;2023-12-20T03:55:49;4.87;;;1.30;;
16254;SDS011;8235;52.198;9.904;2023-12-20T03:58:15;4.13;;;1.50;;
16254;SDS011;8235;52.198;9.904;2023-12-20T04:00:42;5.17;;;1.20;;
16254;SDS011;8235;52.198;9.904;2023-12-20T04:03:08;7.27;;;1.57;;
16254;SDS011;8235;52.198;9.904;2023-12-20T04:05:41;3.27;;;1.37;;
16254;SDS011;8235;52.198;9.904;2023-12-20T04:08:08;3.73;;;1.10;;
16254;SDS011;8235;52.198;9.904;2023-12-20T04:10:35;5.40;;;1.67;;
16254;SDS011;8235;52.198;9.904;2023-12-20T04:13:02;4.53;;;0.80;;
16254;SDS011;8235;52.198;9.904;2023-12-20T04:15:29;8.03;;;1.60;;
16254;SDS011;8235;52.198;9.904;2023-12-20T04:17:55;3.87;;;1.43;;
16254;SDS011;8235;52.198;9.904;2023-12-20T04:20:22;5.17;;;2.53;;
16254;SDS011;8235;52.198;9.904;2023-12-20T04:22:50;9.30;;;2.43;;
16254;SDS011;8235;52.198;9.904;2023-12-20T04:25:16;5.23;;;1.63;;
16254;SDS011;8235;52.198;9.904;2023-12-20T04:27:44;4.07;;;1.63;;
16254;SDS011;8235;52.198;9.904;2023-12-20T04:30:14;5.20;;;1.50;;
16254;SDS011;8235;52.198;9.904;2023-12-20T04:32:40;5.13;;;1.37;;
16254;SDS011;8235;52.198;9.904;2023-12-20T04:35:07;8.63;;;2.43;;
16254;SDS011;8235;52.198;9.904;2023-12-20T04:37:34;5.57;;;1.17;;
16254;SDS011;8235;52.198;9.904;2023-12-20T04:40:02;7.77;;;1.50;;
16254;SDS011;8235;52.198;9.904;2023-12-20T04:42:30;9.40;;;2.00;;
16254;SDS011;8235;52.198;9.904;2023-12-20T04:44:56;7.37;;;2.00;;
16254;SDS011;8235;52.198;9.904;2023-12-20T04:47:23;5.13;;;2.17;;
16254;SDS011;8235;52.198;9.904;2023-12-20T04:49:49;7.00;;;2.57;;
16254;SDS011;8235;52.198;9.904;2023-12-20T04:52:16;7.73;;;2.30;;
16254;SDS011;8235;52.198;9.904;2023-12-20T04:54:44;5.67;;;1.70;;
16254;SDS011;8235;52.198;9.904;2023-12-20T04:57:12;6.60;;;2.30;;
16254;SDS011;8235;52.198;9.904;2023-12-20T04:59:40;6.43;;;1.90;;
16254;SDS011;8235;52.198;9.904;2023-12-20T05:02:07;5.00;;;2.00;;
16254;SDS011;8235;52.198;9.904;2023-12-20T05:04:33;5.60;;;2.37;;
16254;SDS011;8235;52.198;9.904;2023-12-20T05:07:05;6.77;;;2.00;;
16254;SDS011;8235;52.198;9.904;2023-12-20T05:09:31;5.03;;;2.20;;
16254;SDS011;8235;52.198;9.904;2023-12-20T05:11:58;5.40;;;2.17;;
16254;SDS011;8235;52.198;9.904;2023-12-20T05:14:26;7.17;;;2.00;;
16254;SDS011;8235;52.198;9.904;2023-12-20T05:16:53;6.13;;;2.20;;
16254;SDS011;8235;52.198;9.904;2023-12-20T05:19:19;7.07;;;2.30;;
16254;SDS011;8235;52.198;9.904;2023-12-20T05:21:46;4.50;;;2.00;;
16254;SDS011;8235;52.198;9.904;2023-12-20T05:24:12;5.57;;;2.43;;
16254;SDS011;8235;52.198;9.904;2023-12-20T05:26:41;11.60;;;2.63;;
16254;SDS011;8235;52.198;9.904;2023-12-20T05:29:10;12.97;;;3.10;;
16254;SDS011;8235;52.198;9.904;2023-12-20T05:31:39;6.13;;;2.83;;
16254;SDS011;8235;52.198;9.904;2023-12-20T05:34:05;9.67;;;2.30;;
16254;SDS011;8235;52.198;9.904;2023-12-20T05:36:32;8.23;;;2.30;;
16254;SDS011;8235;52.198;9.904;2023-12-20T05:38:59;8.23;;;2.60;;
16254;SDS011;8235;52.198;9.904;2023-12-20T05:41:26;10.47;;;3.10;;
16254;SDS011;8235;52.198;9.904;2023-12-20T05:43:52;5.43;;;2.30;;
16254;SDS011;8235;52.198;9.904;2023-12-20T05:46:22;6.23;;;2.40;;
16254;SDS011;8235;52.198;9.904;2023-12-20T05:48:50;9.03;;;1.90;;
16254;SDS011;8235;52.198;9.904;2023-12-20T05:51:16;5.93;;;1.97;;
16254;SDS011;8235;52.198;9.904;2023-12-20T05:53:43;10.57;;;2.57;;
16254;SDS011;8235;52.198;9.904;2023-12-20T05:56:10;9.90;;;2.50;;
16254;SDS011;8235;52.198;9.904;2023-12-20T05:58:37;6.33;;;2.67;;
16254;SDS011;8235;52.198;9.904;2023-12-20T06:01:05;4.43;;;1.97;;
16254;SDS011;8235;52.198;9.904;2023-12-20T06:03:33;10.33;;;2.47;;
16254;SDS011;8235;52.198;9.904;2023-12-20T06:06:05;8.50;;;2.77;;
16254;SDS011;8235;52.198;9.904;2023-12-20T06:08:32;12.20;;;3.03;;
16254;SDS011;8235;52.198;9.904;2023-12-20T06:10:58;4.17;;;2.47;;
16254;SDS011;8235;52.198;9.904;2023-12-20T06:13:25;8.27;;;2.73;;
16254;SDS011;8235;52.198;9.904;2023-12-20T06:15:52;11.27;;;3.53;;
16254;SDS011;8235;52.198;9.904;2023-12-20T06:18:18;9.43;;;3.03;;
16254;SDS011;8235;52.198;9.904;2023-12-20T06:20:44;7.90;;;2.27;;
16254;SDS011;8235;52.198;9.904;2023-12-20T06:23:12;10.07;;;2.70;;
16254;SDS011;8235;52.198;9.904;2023-12-20T06:25:39;10.67;;;2.90;;
16254;SDS011;8235;52.198;9.904;2023-12-20T06:28:05;8.20;;;2.67;;
16254;SDS011;8235;52.198;9.904;2023-12-20T06:30:35;10.30;;;3.07;;
16254;SDS011;8235;52.198;9.904;2023-12-20T06:33:02;15.00;;;2.90;;
16254;SDS011;8235;52.198;9.904;2023-12-20T06:35:28;9.03;;;2.87;;
16254;SDS011;8235;52.198;9.904;2023-12-20T06:37:55;12.60;;;3.07;;
16254;SDS011;8235;52.198;9.904;2023-12-20T06:40:22;10.57;;;3.03;;
16254;SDS011;8235;52.198;9.904;2023-12-20T06:42:56;8.50;;;2.73;;
16254;SDS011;8235;52.198;9.904;2023-12-20T06:45:24;11.13;;;3.03;;
16254;SDS011;8235;52.198;9.904;2023-12-20T06:47:51;13.80;;;3.00;;
16254;SDS011;8235;52.198;9.904;2023-12-20T06:50:19;11.87;;;2.53;;
16254;SDS011;8235;52.198;9.904;2023-12-20T06:52:45;10.23;;;3.30;;
16254;SDS011;8235;52.198;9.904;2023-12-20T06:55:12;7.37;;;2.40;;
16254;SDS011;8235;52.198;9.904;2023-12-20T06:57:40;10.50;;;2.83;;
16254;SDS011;8235;52.198;9.904;2023-12-20T07:00:07;9.50;;;2.90;;
16254;SDS011;8235;52.198;9.904;2023-12-20T07:02:34;9.70;;;3.20;;
16254;SDS011;8235;52.198;9.904;2023-12-20T07:05:01;12.90;;;2.83;;
16254;SDS011;8235;52.198;9.904;2023-12-20T07:07:27;11.13;;;3.10;;
16254;SDS011;8235;52.198;9.904;2023-12-20T07:09:54;10.63;;;2.40;;
16254;SDS011;8235;52.198;9.904;2023-12-20T07:12:20;7.23;;;2.70;;
16254;SDS011;8235;52.198;9.904;2023-12-20T07:14:48;6.77;;;2.37;;
16254;SDS011;8235;52.198;9.904;2023-12-20T07:17:14;7.17;;;1.90;;
16254;SDS011;8235;52.198;9.904;2023-12-20T07:19:41;9.40;;;3.00;;
16254;SDS011;8235;52.198;9.904;2023-12-20T07:22:08;14.93;;;3.20;;
16254;SDS011;8235;52.198;9.904;2023-12-20T07:24:34;11.87;;;3.10;;
16254;SDS011;8235;52.198;9.904;2023-12-20T07:27:02;9.13;;;3.83;;
16254;SDS011;8235;52.198;9.904;2023-12-20T07:29:29;5.50;;;2.30;;
16254;SDS011;8235;52.198;9.904;2023-12-20T07:31:56;10.90;;;2.43;;
16254;SDS011;8235;52.198;9.904;2023-12-20T07:34:24;7.80;;;2.20;;
16254;SDS011;8235;52.198;9.904;2023-12-20T07:36:50;9.67;;;2.57;;
16254;SDS011;8235;52.198;9.904;2023-12-20T07:39:17;9.30;;;2.70;;
16254;SDS011;8235;52.198;9.904;2023-12-20T07:41:46;6.67;;;2.80;;
16254;SDS011;8235;52.198;9.904;2023-12-20T07:44:12;8.40;;;3.10;;
16254;SDS011;8235;52.198;9.904;2023-12-20T07:46:40;7.93;;;2.40;;
16254;SDS011;8235;52.198;9.904;2023-12-20T07:49:08;13.90;;;3.00;;
16254;SDS011;8235;52.198;9.904;2023-12-20T07:51:35;6.93;;;3.57;;
16254;SDS011;8235;52.198;9.904;2023-12-20T07:54:01;10.07;;;3.13;;
16254;SDS011;8235;52.198;9.904;2023-12-20T07:56:34;11.13;;;3.63;;
16254;SDS011;8235;52.198;9.904;2023-12-20T07:59:00;11.47;;;4.00;;
16254;SDS011;8235;52.198;9.904;2023-12-20T08:01:30;9.40;;;3.83;;
16254;SDS011;8235;52.198;9.904;2023-12-20T08:03:57;9.63;;;4.03;;
16254;SDS011;8235;52.198;9.904;2023-12-20T08:06:25;11.47;;;3.67;;
16254;SDS011;8235;52.198;9.904;2023-12-20T08:08:51;10.47;;;3.60;;
16254;SDS011;8235;52.198;9.904;2023-12-20T08:11:18;9.77;;;3.90;;
16254;SDS011;8235;52.198;9.904;2023-12-20T08:13:44;10.90;;;4.10;;
16254;SDS011;8235;52.198;9.904;2023-12-20T08:16:10;9.77;;;4.17;;
16254;SDS011;8235;52.198;9.904;2023-12-20T08:18:44;18.67;;;5.00;;
16254;SDS011;8235;52.198;9.904;2023-12-20T08:21:11;14.57;;;4.93;;
16254;SDS011;8235;52.198;9.904;2023-12-20T08:23:38;7.93;;;3.93;;
16254;SDS011;8235;52.198;9.904;2023-12-20T08:26:05;10.17;;;4.43;;
16254;SDS011;8235;52.198;9.904;2023-12-20T08:28:33;11.17;;;3.87;;
16254;SDS011;8235;52.198;9.904;2023-12-20T08:30:59;16.87;;;3.83;;
16254;SDS011;8235;52.198;9.904;2023-12-20T08:33:26;12.00;;;3.10;;
16254;SDS011;8235;52.198;9.904;2023-12-20T08:35:53;8.13;;;3.60;;
16254;SDS011;8235;52.198;9.904;2023-12-20T08:38:19;10.67;;;3.70;;
16254;SDS011;8235;52.198;9.904;2023-12-20T08:40:47;10.57;;;3.00;;
16254;SDS011;8235;52.198;9.904;2023-12-20T08:43:14;17.27;;;4.13;;
16254;SDS011;8235;52.198;9.904;2023-12-20T08:45:40;12.80;;;3.43;;
16254;SDS011;8235;52.198;9.904;2023-12-20T08:48:07;6.93;;;3.23;;
16254;SDS011;8235;52.198;9.904;2023-12-20T08:50:33;10.20;;;3.20;;
16254;SDS011;8235;52.198;9.904;2023-12-20T08:52:59;12.83;;;3.50;;
16254;SDS011;8235;52.198;9.904;2023-12-20T08:55:26;9.37;;;3.97;;
16254;SDS011;8235;52.198;9.904;2023-12-20T08:57:55;7.93;;;3.70;;
16254;SDS011;8235;52.198;9.904;2023-12-20T09:00:23;7.50;;;3.23;;
16254;SDS011;8235;52.198;9.904;2023-12-20T09:02:52;12.33;;;4.57;;
16254;SDS011;8235;52.198;9.904;2023-12-20T09:05:19;10.17;;;3.13;;
16254;SDS011;8235;52.198;9.904;2023-12-20T09:07:45;9.40;;;4.17;;
16254;SDS011;8235;52.198;9.904;2023-12-20T09:10:11;9.40;;;3.63;;
16254;SDS011;8235;52.198;9.904;2023-12-20T09:12:38;11.13;;;3.97;;
16254;SDS011;8235;52.198;9.904;2023-12-20T09:15:07;12.57;;;3.90;;
16254;SDS011;8235;52.198;9.904;2023-12-20T09:17:34;10.43;;;3.87;;
16254;SDS011;8235;52.198;9.904;2023-12-20T09:20:00;11.77;;;4.00;;
16254;SDS011;8235;52.198;9.904;2023-12-20T09:22:27;8.70;;;3.20;;
16254;SDS011;8235;52.198;9.904;2023-12-20T09:24:53;9.30;;;3.37;;
16254;SDS011;8235;52.198;9.904;2023-12-20T09:27:20;14.63;;;3.77;;
16254;SDS011;8235;52.198;9.904;2023-12-20T09:29:46;9.20;;;3.70;;
16254;SDS011;8235;52.198;9.904;2023-12-20T09:32:16;11.17;;;4.30;;
16254;SDS011;8235;52.198;9.904;2023-12-20T09:34:45;13.00;;;3.93;;
16254;SDS011;8235;52.198;9.904;2023-12-20T09:37:12;11.27;;;3.00;;
16254;SDS011;8235;52.198;9.904;2023-12-20T09:39:39;12.17;;;3.50;;
16254;SDS011;8235;52.198;9.904;2023-12-20T09:42:07;10.47;;;3.70;;
16254;SDS011;8235;52.198;9.904;2023-12-20T09:44:37;12.73;;;4.07;;
16254;SDS011;8235;52.198;9.904;2023-12-20T09:47:07;8.63;;;3.20;;
16254;SDS011;8235;52.198;9.904;2023-12-20T09:49:35;8.33;;;3.40;;
16254;SDS011;8235;52.198;9.904;2023-12-20T09:52:04;8.37;;;2.77;;
16254;SDS011;8235;52.198;9.904;2023-12-20T09:54:33;8.13;;;2.80;;
16254;SDS011;8235;52.198;9.904;2023-12-20T09:57:00;8.90;;;2.33;;
16254;SDS011;8235;52.198;9.904;2023-12-20T09:59:28;9.30;;;2.80;;
16254;SDS011;8235;52.198;9.904;2023-12-20T10:01:59;6.27;;;2.50;;
16254;SDS011;8235;52.198;9.904;2023-12-20T10:04:28;10.60;;;3.13;;
16254;SDS011;8235;52.198;9.904;2023-12-20T10:07:02;11.30;;;3.20;;
16254;SDS011;8235;52.198;9.904;2023-12-20T10:09:30;7.53;;;3.27;;
16254;SDS011;8235;52.198;9.904;2023-12-20T10:11:57;8.00;;;2.50;;
16254;SDS011;8235;52.198;9.904;2023-12-20T10:14:24;7.60;;;3.03;;
16254;SDS011;8235;52.198;9.904;2023-12-20T10:16:50;7.77;;;3.20;;
16254;SDS011;8235;52.198;9.904;2023-12-20T10:19:19;13.63;;;3.87;;
16254;SDS011;8235;52.198;9.904;2023-12-20T10:21:46;7.90;;;3.07;;
16254;SDS011;8235;52.198;9.904;2023-12-20T10:24:18;5.63;;;3.20;;
16254;SDS011;8235;52.198;9.904;2023-12-20T10:26:44;6.17;;;2.97;;
16254;SDS011;8235;52.198;9.904;2023-12-20T10:29:11;9.07;;;3.33;;
16254;SDS011;8235;52.198;9.904;2023-12-20T10:31:38;9.37;;;4.10;;
16254;SDS011;8235;52.198;9.904;2023-12-20T10:34:07;8.20;;;4.60;;
16254;SDS011;8235;52.198;9.904;2023-12-20T10:36:34;8.47;;;4.33;;
16254;SDS011;8235;52.198;9.904;2023-12-20T10:39:01;9.47;;;4.40;;
16254;SDS011;8235;52.198;9.904;2023-12-20T10:41:30;8.93;;;4.70;;
16254;SDS011;8235;52.198;9.904;2023-12-20T10:43:58;10.53;;;4.03;;
16254;SDS011;8235;52.198;9.904;2023-12-20T10:46:26;8.53;;;4.77;;
16254;SDS011;8235;52.198;9.904;2023-12-20T10:48:54;8.10;;;4.33;;
16254;SDS011;8235;52.198;9.904;2023-12-20T10:51:21;8.60;;;4.47;;
16254;SDS011;8235;52.198;9.904;2023-12-20T10:53:49;10.93;;;4.57;;
16254;SDS011;8235;52.198;9.904;2023-12-20T10:56:16;8.87;;;4.60;;
16254;SDS011;8235;52.198;9.904;2023-12-20T10:58:47;13.57;;;4.83;;
16254;SDS011;8235;52.198;9.904;2023-12-20T11:01:14;17.40;;;10.87;;
16254;SDS011;8235;52.198;9.904;2023-12-20T11:03:43;12.67;;;7.47;;
16254;SDS011;8235;52.198;9.904;2023-12-20T11:09:06;12.03;;;5.33;;
16254;SDS011;8235;52.198;9.904;2023-12-20T11:11:43;10.57;;;4.77;;
16254;SDS011;8235;52.198;9.904;2023-12-20T11:14:25;8.63;;;5.10;;
16254;SDS011;8235;52.198;9.904;2023-12-20T11:19:43;14.70;;;8.90;;
16254;SDS011;8235;52.198;9.904;2023-12-20T11:22:33;10.07;;;5.37;;
16254;SDS011;8235;52.198;9.904;2023-12-20T11:25:02;12.97;;;6.70;;
16254;SDS011;8235;52.198;9.904;2023-12-20T11:27:33;14.53;;;5.83;;
16254;SDS011;8235;52.198;9.904;2023-12-20T11:30:02;14.00;;;5.87;;
16254;SDS011;8235;52.198;9.904;2023-12-20T11:32:33;10.23;;;5.30;;
16254;SDS011;8235;52.198;9.904;2023-12-20T11:35:01;11.50;;;6.13;;
16254;SDS011;8235;52.198;9.904;2023-12-20T11:37:42;11.20;;;5.70;;
16254;SDS011;8235;52.198;9.904;2023-12-20T11:40:11;8.60;;;5.87;;
16254;SDS011;8235;52.198;9.904;2023-12-20T11:42:39;12.77;;;5.30;;
16254;SDS011;8235;52.198;9.904;2023-12-20T11:45:09;10.07;;;5.57;;
16254;SDS011;8235;52.198;9.904;2023-12-20T11:47:36;9.43;;;5.00;;
16254;SDS011;8235;52.198;9.904;2023-12-20T11:50:04;7.77;;;4.50;;
16254;SDS011;8235;52.198;9.904;2023-12-20T11:52:32;9.30;;;5.23;;
16254;SDS011;8235;52.198;9.904;2023-12-20T11:54:59;11.60;;;4.50;;
16254;SDS011;8235;52.198;9.904;2023-12-20T11:57:25;8.33;;;4.80;;
16254;SDS011;8235;52.198;9.904;2023-12-20T11:59:52;9.47;;;3.93;;
16254;SDS011;8235;52.198;9.904;2023-12-20T12:02:20;8.43;;;4.30;;
16254;SDS011;8235;52.198;9.904;2023-12-20T12:04:48;7.40;;;3.60;;
16254;SDS011;8235;52.198;9.904;2023-12-20T12:07:15;9.73;;;2.97;;
16254;SDS011;8235;52.198;9.904;2023-12-20T12:09:42;9.10;;;3.33;;
16254;SDS011;8235;52.198;9.904;2023-12-20T12:12:08;6.67;;;2.20;;
16254;SDS011;8235;52.198;9.904;2023-12-20T12:14:35;2.77;;;0.80;;
16254;SDS011;8235;52.198;9.904;2023-12-20T12:17:02;6.80;;;0.80;;
16254;SDS011;8235;52.198;9.904;2023-12-20T12:19:30;3.00;;;0.60;;
16254;SDS011;8235;52.198;9.904;2023-12-20T12:22:04;2.00;;;0.53;;
16254;SDS011;8235;52.198;9.904;2023-12-20T12:24:32;0.50;;;0.40;;
16254;SDS011;8235;52.198;9.904;2023-12-20T12:26:58;3.27;;;0.60;;
16254;SDS011;8235;52.198;9.904;2023-12-20T12:29:25;2.20;;;0.53;;
16254;SDS011;8235;52.198;9.904;2023-12-20T12:31:53;2.37;;;1.23;;
16254;SDS011;8235;52.198;9.904;2023-12-20T12:34:20;2.23;;;0.37;;
16254;SDS011;8235;52.198;9.904;2023-12-20T12:36:48;1.07;;;0.70;;
16254;SDS011;8235;52.198;9.904;2023-12-20T12:39:14;1.67;;;0.53;;
16254;SDS011;8235;52.198;9.904;2023-12-20T12:41:41;1.20;;;0.60;;
16254;SDS011;8235;52.198;9.904;2023-12-20T12:44:07;2.27;;;0.60;;
16254;SDS011;8235;52.198;9.904;2023-12-20T12:46:37;2.07;;;1.30;;
16254;SDS011;8235;52.198;9.904;2023-12-20T12:49:03;3.57;;;1.10;;
16254;SDS011;8235;52.198;9.904;2023-12-20T12:51:30;2.70;;;1.30;;
16254;SDS011;8235;52.198;9.904;2023-12-20T12:53:58;3.33;;;1.53;;
16254;SDS011;8235;52.198;9.904;2023-12-20T12:56:24;2.30;;;1.40;;
16254;SDS011;8235;52.198;9.904;2023-12-20T12:58:51;3.17;;;0.90;;
16254;SDS011;8235;52.198;9.904;2023-12-20T13:01:17;5.87;;;2.80;;
16254;SDS011;8235;52.198;9.904;2023-12-20T13:03:44;6.63;;;2.20;;
16254;SDS011;8235;52.198;9.904;2023-12-20T13:06:13;3.80;;;1.83;;
16254;SDS011;8235;52.198;9.904;2023-12-20T13:08:39;6.33;;;3.17;;
16254;SDS011;8235;52.198;9.904;2023-12-20T13:11:08;3.53;;;1.70;;
16254;SDS011;8235;52.198;9.904;2023-12-20T13:13:34;4.57;;;2.20;;
16254;SDS011;8235;52.198;9.904;2023-12-20T13:16:01;4.07;;;2.30;;
16254;SDS011;8235;52.198;9.904;2023-12-20T13:18:28;3.43;;;0.80;;
16254;SDS011;8235;52.198;9.904;2023-12-20T13:20:59;1.37;;;0.60;;
16254;SDS011;8235;52.198;9.904;2023-12-20T13:23:25;1.23;;;0.60;;
16254;SDS011;8235;52.198;9.904;2023-12-20T13:25:51;3.53;;;0.43;;
16254;SDS011;8235;52.198;9.904;2023-12-20T13:28:19;2.50;;;1.43;;
16254;SDS011;8235;52.198;9.904;2023-12-20T13:30:46;3.60;;;1.43;;
16254;SDS011;8235;52.198;9.904;2023-12-20T13:33:12;1.53;;;0.60;;
16254;SDS011;8235;52.198;9.904;2023-12-20T13:35:40;0.50;;;0.40;;
16254;SDS011;8235;52.198;9.904;2023-12-20T13:38:06;3.43;;;0.63;;
16254;SDS011;8235;52.198;9.904;2023-12-20T13:40:33;1.90;;;0.80;;
16254;SDS011;8235;52.198;9.904;2023-12-20T13:42:59;1.03;;;0.33;;
16254;SDS011;8235;52.198;9.904;2023-12-20T13:45:29;1.10;;;0.40;;
16254;SDS011;8235;52.198;9.904;2023-12-20T13:47:56;1.83;;;0.57;;
16254;SDS011;8235;52.198;9.904;2023-12-20T13:50:23;1.83;;;0.60;;
16254;SDS011;8235;52.198;9.904;2023-12-20T13:52:51;1.03;;;0.40;;
16254;SDS011;8235;52.198;9.904;2023-12-20T13:55:17;0.90;;;0.40;;
16254;SDS011;8235;52.198;9.904;2023-12-20T13:57:47;1.20;;;0.40;;
16254;SDS011;8235;52.198;9.904;2023-12-20T14:00:14;2.10;;;0.90;;
16254;SDS011;8235;52.198;9.904;2023-12-20T14:02:42;9.87;;;5.13;;
16254;SDS011;8235;52.198;9.904;2023-12-20T14:05:08;3.27;;;1.80;;
16254;SDS011;8235;52.198;9.904;2023-12-20T14:07:35;2.03;;;1.00;;
16254;SDS011;8235;52.198;9.904;2023-12-20T14:10:02;3.30;;;1.10;;
16254;SDS011;8235;52.198;9.904;2023-12-20T14:12:29;3.70;;;1.40;;
16254;SDS011;8235;52.198;9.904;2023-12-20T14:14:56;2.23;;;1.20;;
16254;SDS011;8235;52.198;9.904;2023-12-20T14:17:22;2.57;;;1.10;;
16254;SDS011;8235;52.198;9.904;2023-12-20T14:19:50;4.20;;;1.47;;
16254;SDS011;8235;52.198;9.904;2023-12-20T14:22:19;3.37;;;1.37;;
16254;SDS011;8235;52.198;9.904;2023-12-20T14:24:46;3.73;;;1.40;;
16254;SDS011;8235;52.198;9.904;2023-12-20T14:27:12;3.33;;;1.20;;
16254;SDS011;8235;52.198;9.904;2023-12-20T14:29:39;2.67;;;1.63;;
16254;SDS011;8235;52.198;9.904;2023-12-20T14:32:05;3.23;;;1.00;;
16254;SDS011;8235;52.198;9.904;2023-12-20T14:34:32;2.47;;;1.20;;
16254;SDS011;8235;52.198;9.904;2023-12-20T14:37:03;3.80;;;1.10;;
16254;SDS011;8235;52.198;9.904;2023-12-20T14:39:51;5.27;;;1.33;;
16254;SDS011;8235;52.198;9.904;2023-12-20T14:42:18;4.27;;;1.50;;
16254;SDS011;8235;52.198;9.904;2023-12-20T14:44:44;5.30;;;1.30;;
16254;SDS011;8235;52.198;9.904;2023-12-20T14:47:11;4.07;;;1.57;;
16254;SDS011;8235;52.198;9.904;2023-12-20T14:49:39;3.83;;;2.33;;
16254;SDS011;8235;52.198;9.904;2023-12-20T14:52:08;5.60;;;1.50;;
16254;SDS011;8235;52.198;9.904;2023-12-20T14:54:38;4.73;;;1.97;;
16254;SDS011;8235;52.198;9.904;2023-12-20T14:57:07;2.50;;;1.43;;
16254;SDS011;8235;52.198;9.904;2023-12-20T14:59:33;4.63;;;1.70;;
16254;SDS011;8235;52.198;9.904;2023-12-20T15:02:00;6.63;;;1.57;;
16254;SDS011;8235;52.198;9.904;2023-12-20T15:04:39;3.57;;;1.37;;